sensor_id;sensor_type;location;lat;lon;timestamp;pressure;altitude;pressure_sealevel;temperature;humidity
41636;BME280;27623;51.966;4.602;2024-01-30T00:01:17;64234.00;;;10.14;100.00
41636;BME280;27623;51.966;4.602;2024-01-30T00:03:42;64243.47;;;10.11;100.00
41636;BME280;27623;51.966;4.602;2024-01-30T00:06:10;64302.19;;;9.99;100.00
41636;BME280;27623;51.966;4.602;2024-01-30T00:08:36;64312.38;;;9.99;100.00
41636;BME280;27623;51.966;4.602;2024-01-30T00:11:01;64200.41;;;9.92;100.00
41636;BME280;27623;51.966;4.602;2024-01-30T00:13:26;64271.84;;;10.02;100.00
41636;BME280;27623;51.966;4.602;2024-01-30T00:15:52;64202.41;;;9.92;100.00
41636;BME280;27623;51.966;4.602;2024-01-30T00:18:20;64209.81;;;10.11;100.00
41636;BME280;27623;51.966;4.602;2024-01-30T00:20:45;64219.47;;;10.03;100.00
41636;BME280;27623;51.966;4.602;2024-01-30T00:23:10;64296.19;;;10.01;100.00
41636;BME280;27623;51.966;4.602;2024-01-30T00:25:38;64282.00;;;10.02;100.00
41636;BME280;27623;51.966;4.602;2024-01-30T00:28:06;64233.47;;;9.99;100.00
41636;BME280;27623;51.966;4.602;2024-01-30T00:30:31;64257.31;;;9.91;100.00
41636;BME280;27623;51.966;4.602;2024-01-30T00:32:56;64225.47;;;10.09;100.00
41636;BME280;27623;51.966;4.602;2024-01-30T00:35:22;64276.56;;;10.18;100.00
41636;BME280;27623;51.966;4.602;2024-01-30T00:37:48;64313.09;;;10.17;100.00
41636;BME280;27623;51.966;4.602;2024-01-30T00:40:16;64344.94;;;10.13;100.00
41636;BME280;27623;51.966;4.602;2024-01-30T00:42:43;64255.09;;;10.24;100.00
41636;BME280;27623;51.966;4.602;2024-01-30T00:45:15;64276.53;;;10.32;100.00
41636;BME280;27623;51.966;4.602;2024-01-30T00:47:41;64262.19;;;10.24;100.00
41636;BME280;27623;51.966;4.602;2024-01-30T00:50:07;64309.66;;;10.18;100.00
41636;BME280;27623;51.966;4.602;2024-01-30T00:52:32;64261.47;;;10.07;100.00
41636;BME280;27623;51.966;4.602;2024-01-30T00:54:59;64263.09;;;10.15;100.00
41636;BME280;27623;51.966;4.602;2024-01-30T00:57:24;64244.53;;;10.12;100.00
41636;BME280;27623;51.966;4.602;2024-01-30T00:59:52;64318.38;;;10.12;100.00
41636;BME280;27623;51.966;4.602;2024-01-30T01:02:17;64301.28;;;10.15;100.00
41636;BME280;27623;51.966;4.602;2024-01-30T01:04:44;64266.00;;;10.13;100.00
41636;BME280;27623;51.966;4.602;2024-01-30T01:07:10;64291.09;;;10.08;100.00
41636;BME280;27623;51.966;4.602;2024-01-30T01:09:36;64237.28;;;10.03;100.00
41636;BME280;27623;51.966;4.602;2024-01-30T01:12:02;64245.50;;;9.89;100.00
41636;BME280;27623;51.966;4.602;2024-01-30T01:14:31;64192.06;;;9.89;100.00
41636;BME280;27623;51.966;4.602;2024-01-30T01:16:56;64186.06;;;9.91;100.00
41636;BME280;27623;51.966;4.602;2024-01-30T01:19:22;64228.56;;;10.02;100.00
41636;BME280;27623;51.966;4.602;2024-01-30T01:21:47;64208.91;;;10.05;100.00
41636;BME280;27623;51.966;4.602;2024-01-30T01:24:12;64269.81;;;10.10;100.00
41636;BME280;27623;51.966;4.602;2024-01-30T01:26:40;64282.59;;;9.95;100.00
41636;BME280;27623;51.966;4.602;2024-01-30T01:29:06;64280.94;;;9.94;100.00
41636;BME280;27623;51.966;4.602;2024-01-30T01:31:38;64228.00;;;10.02;100.00
41636;BME280;27623;51.966;4.602;2024-01-30T01:34:11;64241.44;;;10.19;100.00
41636;BME280;27623;51.966;4.602;2024-01-30T01:36:36;64317.84;;;10.19;100.00
41636;BME280;27623;51.966;4.602;2024-01-30T01:39:02;64300.00;;;10.12;100.00
41636;BME280;27623;51.966;4.602;2024-01-30T01:41:31;64278.38;;;10.08;100.00
41636;BME280;27623;51.966;4.602;2024-01-30T01:43:58;64299.47;;;10.04;100.00
41636;BME280;27623;51.966;4.602;2024-01-30T01:46:24;64214.56;;;9.98;100.00
41636;BME280;27623;51.966;4.602;2024-01-30T01:48:50;64293.28;;;10.03;100.00
41636;BME280;27623;51.966;4.602;2024-01-30T01:51:15;64231.47;;;10.00;100.00
41636;BME280;27623;51.966;4.602;2024-01-30T01:53:44;64222.56;;;10.04;100.00
41636;BME280;27623;51.966;4.602;2024-01-30T01:56:09;64226.78;;;9.91;100.00
41636;BME280;27623;51.966;4.602;2024-01-30T01:58:35;64266.41;;;9.97;100.00
41636;BME280;27623;51.966;4.602;2024-01-30T02:01:02;64228.59;;;9.88;100.00
41636;BME280;27623;51.966;4.602;2024-01-30T02:03:28;64203.69;;;9.95;100.00
41636;BME280;27623;51.966;4.602;2024-01-30T02:05:55;64211.69;;;9.86;100.00
41636;BME280;27623;51.966;4.602;2024-01-30T02:08:20;64194.06;;;9.89;100.00
41636;BME280;27623;51.966;4.602;2024-01-30T02:10:45;64283.47;;;10.01;100.00
41636;BME280;27623;51.966;4.602;2024-01-30T02:13:11;64289.09;;;10.02;100.00
41636;BME280;27623;51.966;4.602;2024-01-30T02:15:36;64270.22;;;9.93;100.00
41636;BME280;27623;51.966;4.602;2024-01-30T02:18:02;64221.47;;;10.03;100.00
41636;BME280;27623;51.966;4.602;2024-01-30T02:20:29;64241.69;;;9.93;100.00
41636;BME280;27623;51.966;4.602;2024-01-30T02:22:58;64274.03;;;9.97;100.00
41636;BME280;27623;51.966;4.602;2024-01-30T02:25:42;64299.66;;;10.21;100.00
41636;BME280;27623;51.966;4.602;2024-01-30T02:28:13;64211.69;;;9.93;100.00
41636;BME280;27623;51.966;4.602;2024-01-30T02:30:39;64279.31;;;9.92;100.00
41636;BME280;27623;51.966;4.602;2024-01-30T02:33:05;64185.34;;;9.81;100.00
41636;BME280;27623;51.966;4.602;2024-01-30T02:35:30;64293.31;;;9.96;100.00
41636;BME280;27623;51.966;4.602;2024-01-30T02:37:56;64212.78;;;9.80;100.00
41636;BME280;27623;51.966;4.602;2024-01-30T02:40:23;64266.22;;;9.87;100.00
41636;BME280;27623;51.966;4.602;2024-01-30T02:42:49;64175.16;;;9.81;100.00
41636;BME280;27623;51.966;4.602;2024-01-30T02:45:14;64207.34;;;9.82;100.00
41636;BME280;27623;51.966;4.602;2024-01-30T02:47:40;64211.53;;;9.77;100.00
41636;BME280;27623;51.966;4.602;2024-01-30T02:50:06;64275.13;;;9.91;100.00
41636;BME280;27623;51.966;4.602;2024-01-30T02:52:31;64197.16;;;9.89;100.00
41636;BME280;27623;51.966;4.602;2024-01-30T02:54:57;64172.25;;;9.90;100.00
41636;BME280;27623;51.966;4.602;2024-01-30T02:57:22;64236.00;;;9.99;100.00
41636;BME280;27623;51.966;4.602;2024-01-30T02:59:47;64284.56;;;10.02;100.00
41636;BME280;27623;51.966;4.602;2024-01-30T03:02:13;64298.56;;;10.06;100.00
41636;BME280;27623;51.966;4.602;2024-01-30T03:04:41;64280.38;;;10.08;100.00
41636;BME280;27623;51.966;4.602;2024-01-30T03:07:06;64283.84;;;9.99;100.00
41636;BME280;27623;51.966;4.602;2024-01-30T03:09:32;64222.19;;;10.06;100.00
41636;BME280;27623;51.966;4.602;2024-01-30T03:11:57;64253.47;;;10.02;100.00
41636;BME280;27623;51.966;4.602;2024-01-30T03:14:22;64196.81;;;9.70;100.00
41636;BME280;27623;51.966;4.602;2024-01-30T03:16:50;64209.19;;;9.72;100.00
41636;BME280;27623;51.966;4.602;2024-01-30T03:19:15;64226.97;;;9.86;100.00
41636;BME280;27623;51.966;4.602;2024-01-30T03:21:41;64320.75;;;9.88;100.00
41636;BME280;27623;51.966;4.602;2024-01-30T03:24:06;64267.50;;;9.91;100.00
41636;BME280;27623;51.966;4.602;2024-01-30T03:26:32;64310.03;;;9.95;100.00
41636;BME280;27623;51.966;4.602;2024-01-30T03:28:57;64270.00;;;9.98;100.00
41636;BME280;27623;51.966;4.602;2024-01-30T03:31:22;64288.94;;;9.92;100.00
41636;BME280;27623;51.966;4.602;2024-01-30T03:33:48;64292.75;;;10.03;100.00
41636;BME280;27623;51.966;4.602;2024-01-30T03:36:15;64312.94;;;10.07;100.00
41636;BME280;27623;51.966;4.602;2024-01-30T03:38:40;64277.13;;;9.90;100.00
41636;BME280;27623;51.966;4.602;2024-01-30T03:41:08;64217.09;;;9.98;100.00
41636;BME280;27623;51.966;4.602;2024-01-30T03:43:36;64243.31;;;9.94;100.00
41636;BME280;27623;51.966;4.602;2024-01-30T03:46:02;64217.50;;;9.96;100.00
41636;BME280;27623;51.966;4.602;2024-01-30T03:48:28;64296.94;;;9.97;100.00
41636;BME280;27623;51.966;4.602;2024-01-30T03:50:56;64327.47;;;10.04;100.00
41636;BME280;27623;51.966;4.602;2024-01-30T03:53:22;64312.94;;;9.93;100.00
41636;BME280;27623;51.966;4.602;2024-01-30T03:55:47;64283.28;;;9.98;100.00
41636;BME280;27623;51.966;4.602;2024-01-30T03:58:13;64206.00;;;10.07;100.00
41636;BME280;27623;51.966;4.602;2024-01-30T04:00:38;64247.50;;;9.96;100.00
41636;BME280;27623;51.966;4.602;2024-01-30T04:03:09;64330.41;;;9.95;100.00
41636;BME280;27623;51.966;4.602;2024-01-30T04:05:36;64219.09;;;9.98;100.00
41636;BME280;27623;51.966;4.602;2024-01-30T04:08:02;64208.59;;;9.93;100.00
41636;BME280;27623;51.966;4.602;2024-01-30T04:10:27;64267.84;;;9.96;100.00
41636;BME280;27623;51.966;4.602;2024-01-30T04:12:56;64318.94;;;10.06;100.00
41636;BME280;27623;51.966;4.602;2024-01-30T04:15:21;64277.31;;;9.93;100.00
41636;BME280;27623;51.966;4.602;2024-01-30T04:17:46;64303.09;;;9.98;100.00
41636;BME280;27623;51.966;4.602;2024-01-30T04:20:15;64286.41;;;9.85;100.00
41636;BME280;27623;51.966;4.602;2024-01-30T04:22:44;64194.41;;;9.87;100.00
41636;BME280;27623;51.966;4.602;2024-01-30T04:25:13;64231.47;;;10.00;100.00
41636;BME280;27623;51.966;4.602;2024-01-30T04:27:39;64259.47;;;10.07;100.00
41636;BME280;27623;51.966;4.602;2024-01-30T04:30:04;64292.00;;;10.07;100.00
41636;BME280;27623;51.966;4.602;2024-01-30T04:32:32;64305.66;;;10.12;100.00
41636;BME280;27623;51.966;4.602;2024-01-30T04:34:58;64222.00;;;10.03;100.00
41636;BME280;27623;51.966;4.602;2024-01-30T04:37:24;64313.09;;;10.03;100.00
41636;BME280;27623;51.966;4.602;2024-01-30T04:39:50;64231.28;;;10.05;100.00
41636;BME280;27623;51.966;4.602;2024-01-30T04:42:18;64281.28;;;9.99;100.00
41636;BME280;27623;51.966;4.602;2024-01-30T04:44:46;64296.56;;;10.06;100.00
41636;BME280;27623;51.966;4.602;2024-01-30T04:47:12;64309.66;;;10.04;100.00
41636;BME280;27623;51.966;4.602;2024-01-30T04:49:40;64244.38;;;10.03;100.00
41636;BME280;27623;51.966;4.602;2024-01-30T04:52:06;64247.47;;;10.03;100.00
41636;BME280;27623;51.966;4.602;2024-01-30T04:54:32;64269.50;;;9.97;100.00
41636;BME280;27623;51.966;4.602;2024-01-30T04:56:58;64270.19;;;10.00;100.00
41636;BME280;27623;51.966;4.602;2024-01-30T04:59:23;64218.94;;;9.95;100.00
41636;BME280;27623;51.966;4.602;2024-01-30T05:01:49;64212.22;;;9.87;100.00
41636;BME280;27623;51.966;4.602;2024-01-30T05:04:14;64250.06;;;9.75;100.00
41636;BME280;27623;51.966;4.602;2024-01-30T05:06:40;64187.91;;;9.74;100.00
41636;BME280;27623;51.966;4.602;2024-01-30T05:09:05;64240.25;;;9.73;100.00
41636;BME280;27623;51.966;4.602;2024-01-30T05:11:38;64183.88;;;9.82;100.00
41636;BME280;27623;51.966;4.602;2024-01-30T05:14:04;64286.41;;;9.78;100.00
41636;BME280;27623;51.966;4.602;2024-01-30T05:16:30;64298.41;;;9.89;100.00
41636;BME280;27623;51.966;4.602;2024-01-30T05:18:55;64266.03;;;9.85;100.00
41636;BME280;27623;51.966;4.602;2024-01-30T05:21:20;64190.09;;;9.76;100.00
41636;BME280;27623;51.966;4.602;2024-01-30T05:23:46;64196.06;;;9.81;100.00
41636;BME280;27623;51.966;4.602;2024-01-30T05:26:11;64185.53;;;9.83;100.00
41636;BME280;27623;51.966;4.602;2024-01-30T05:28:36;64301.50;;;9.96;100.00
41636;BME280;27623;51.966;4.602;2024-01-30T05:31:03;64238.03;;;9.92;100.00
41636;BME280;27623;51.966;4.602;2024-01-30T05:33:28;64277.69;;;9.84;100.00
41636;BME280;27623;51.966;4.602;2024-01-30T05:35:56;64240.03;;;9.91;100.00
41636;BME280;27623;51.966;4.602;2024-01-30T05:38:21;64277.84;;;9.86;100.00
41636;BME280;27623;51.966;4.602;2024-01-30T05:40:49;64295.13;;;9.86;100.00
41636;BME280;27623;51.966;4.602;2024-01-30T05:43:14;64291.50;;;9.85;100.00
41636;BME280;27623;51.966;4.602;2024-01-30T05:45:39;64184.78;;;9.80;100.00
41636;BME280;27623;51.966;4.602;2024-01-30T05:48:05;64301.13;;;9.84;100.00
41636;BME280;27623;51.966;4.602;2024-01-30T05:50:30;64311.31;;;9.91;100.00
41636;BME280;27623;51.966;4.602;2024-01-30T05:52:56;64238.22;;;9.94;100.00
41636;BME280;27623;51.966;4.602;2024-01-30T05:55:22;64293.84;;;9.96;100.00
41636;BME280;27623;51.966;4.602;2024-01-30T05:57:47;64276.94;;;10.02;100.00
41636;BME280;27623;51.966;4.602;2024-01-30T06:00:16;64248.41;;;9.94;100.00
41636;BME280;27623;51.966;4.602;2024-01-30T06:02:41;64218.94;;;9.95;100.00
41636;BME280;27623;51.966;4.602;2024-01-30T06:05:07;64260.75;;;9.96;100.00
41636;BME280;27623;51.966;4.602;2024-01-30T06:07:33;64197.66;;;10.04;100.00
41636;BME280;27623;51.966;4.602;2024-01-30T06:09:58;64232.75;;;10.04;100.00
41636;BME280;27623;51.966;4.602;2024-01-30T06:12:26;64208.72;;;10.10;100.00
41636;BME280;27623;51.966;4.602;2024-01-30T06:14:54;64349.31;;;10.17;100.00
41636;BME280;27623;51.966;4.602;2024-01-30T06:17:22;64225.63;;;10.11;100.00
41636;BME280;27623;51.966;4.602;2024-01-30T06:19:48;64258.19;;;10.11;100.00
41636;BME280;27623;51.966;4.602;2024-01-30T06:22:13;64234.56;;;10.08;100.00
41636;BME280;27623;51.966;4.602;2024-01-30T06:24:41;64272.91;;;10.10;100.00
41636;BME280;27623;51.966;4.602;2024-01-30T06:27:06;64241.09;;;9.99;100.00
41636;BME280;27623;51.966;4.602;2024-01-30T06:29:31;64261.09;;;10.02;100.00
41636;BME280;27623;51.966;4.602;2024-01-30T06:31:57;64298.56;;;10.13;100.00
41636;BME280;27623;51.966;4.602;2024-01-30T06:34:22;64233.28;;;10.04;100.00
41636;BME280;27623;51.966;4.602;2024-01-30T06:36:47;64251.66;;;10.05;100.00
41636;BME280;27623;51.966;4.602;2024-01-30T06:39:13;64216.91;;;10.10;100.00
41636;BME280;27623;51.966;4.602;2024-01-30T06:41:38;64241.09;;;10.07;100.00
41636;BME280;27623;51.966;4.602;2024-01-30T06:44:03;64260.72;;;10.18;100.00
41636;BME280;27623;51.966;4.602;2024-01-30T06:46:31;64316.19;;;10.10;100.00
41636;BME280;27623;51.966;4.602;2024-01-30T06:48:57;64268.38;;;10.11;100.00
41636;BME280;27623;51.966;4.602;2024-01-30T06:51:22;64237.81;;;10.04;100.00
41636;BME280;27623;51.966;4.602;2024-01-30T06:53:48;64292.56;;;10.00;100.00
41636;BME280;27623;51.966;4.602;2024-01-30T06:56:13;64323.66;;;10.08;100.00
41636;BME280;27623;51.966;4.602;2024-01-30T06:58:46;64308.94;;;10.08;100.00
41636;BME280;27623;51.966;4.602;2024-01-30T07:01:11;64306.75;;;10.13;100.00
41636;BME280;27623;51.966;4.602;2024-01-30T07:03:36;64294.38;;;10.18;100.00
41636;BME280;27623;51.966;4.602;2024-01-30T07:06:02;64292.75;;;10.17;100.00
41636;BME280;27623;51.966;4.602;2024-01-30T07:08:27;64203.81;;;10.12;100.00
41636;BME280;27623;51.966;4.602;2024-01-30T07:10:55;64248.53;;;10.18;100.00
41636;BME280;27623;51.966;4.602;2024-01-30T07:13:21;64310.00;;;10.23;100.00
41636;BME280;27623;51.966;4.602;2024-01-30T07:15:46;64241.63;;;10.28;100.00
41636;BME280;27623;51.966;4.602;2024-01-30T07:18:12;64353.81;;;10.45;100.00
41636;BME280;27623;51.966;4.602;2024-01-30T07:20:39;64316.91;;;10.42;100.00
41636;BME280;27623;51.966;4.602;2024-01-30T07:23:11;64323.25;;;10.45;100.00
41636;BME280;27623;51.966;4.602;2024-01-30T07:25:39;64302.88;;;10.52;100.00
41636;BME280;27623;51.966;4.602;2024-01-30T07:28:06;64275.22;;;10.50;100.00
41636;BME280;27623;51.966;4.602;2024-01-30T07:30:32;64257.38;;;10.50;100.00
41636;BME280;27623;51.966;4.602;2024-01-30T07:32:57;64386.75;;;10.57;100.00
41636;BME280;27623;51.966;4.602;2024-01-30T07:35:25;64431.88;;;10.61;100.00
41636;BME280;27623;51.966;4.602;2024-01-30T07:37:50;64396.22;;;10.68;100.00
41636;BME280;27623;51.966;4.602;2024-01-30T07:40:16;64336.69;;;10.70;100.00
41636;BME280;27623;51.966;4.602;2024-01-30T07:42:42;64325.03;;;10.71;100.00
41636;BME280;27623;51.966;4.602;2024-01-30T07:45:07;64316.28;;;10.70;100.00
41636;BME280;27623;51.966;4.602;2024-01-30T07:47:33;64372.53;;;10.79;100.00
41636;BME280;27623;51.966;4.602;2024-01-30T07:49:58;64358.16;;;10.78;100.00
41636;BME280;27623;51.966;4.602;2024-01-30T07:52:26;64429.69;;;10.80;100.00
41636;BME280;27623;51.966;4.602;2024-01-30T07:54:51;64367.25;;;10.70;100.00
41636;BME280;27623;51.966;4.602;2024-01-30T07:57:19;64327.56;;;10.78;100.00
41636;BME280;27623;51.966;4.602;2024-01-30T07:59:45;64405.28;;;10.81;100.00
41636;BME280;27623;51.966;4.602;2024-01-30T08:02:12;64386.72;;;10.85;100.00
41636;BME280;27623;51.966;4.602;2024-01-30T08:04:38;64370.88;;;10.92;100.00
41636;BME280;27623;51.966;4.602;2024-01-30T08:07:03;64440.41;;;11.02;100.00
41636;BME280;27623;51.966;4.602;2024-01-30T08:09:34;64332.22;;;11.08;100.00
41636;BME280;27623;51.966;4.602;2024-01-30T08:12:01;64324.03;;;11.00;100.00
41636;BME280;27623;51.966;4.602;2024-01-30T08:14:29;64425.50;;;11.00;100.00
41636;BME280;27623;51.966;4.602;2024-01-30T08:16:57;64346.25;;;11.05;100.00
41636;BME280;27623;51.966;4.602;2024-01-30T08:19:22;64344.59;;;11.10;100.00
41636;BME280;27623;51.966;4.602;2024-01-30T08:21:48;64344.03;;;11.17;100.00
41636;BME280;27623;51.966;4.602;2024-01-30T08:24:13;64376.25;;;11.18;100.00
41636;BME280;27623;51.966;4.602;2024-01-30T08:26:38;64361.53;;;11.12;100.00
41636;BME280;27623;51.966;4.602;2024-01-30T08:29:04;64354.78;;;11.17;100.00
41636;BME280;27623;51.966;4.602;2024-01-30T08:31:29;64403.41;;;11.20;100.00
41636;BME280;27623;51.966;4.602;2024-01-30T08:33:54;64355.88;;;11.18;100.00
41636;BME280;27623;51.966;4.602;2024-01-30T08:36:20;64349.50;;;11.15;100.00
41636;BME280;27623;51.966;4.602;2024-01-30T08:38:45;64420.53;;;11.17;100.00
41636;BME280;27623;51.966;4.602;2024-01-30T08:41:11;64453.31;;;11.19;100.00
41636;BME280;27623;51.966;4.602;2024-01-30T08:43:38;64403.78;;;11.11;100.00
41636;BME280;27623;51.966;4.602;2024-01-30T08:46:04;64406.13;;;11.22;100.00
41636;BME280;27623;51.966;4.602;2024-01-30T08:48:29;64455.50;;;11.14;100.00
41636;BME280;27623;51.966;4.602;2024-01-30T08:50:54;64448.22;;;11.19;100.00
41636;BME280;27623;51.966;4.602;2024-01-30T08:53:20;64358.78;;;11.16;100.00
41636;BME280;27623;51.966;4.602;2024-01-30T08:55:45;64486.09;;;11.28;100.00
41636;BME280;27623;51.966;4.602;2024-01-30T08:58:11;64395.53;;;11.31;100.00
41636;BME280;27623;51.966;4.602;2024-01-30T09:00:36;64431.06;;;11.29;100.00
41636;BME280;27623;51.966;4.602;2024-01-30T09:03:03;64399.00;;;11.23;100.00
41636;BME280;27623;51.966;4.602;2024-01-30T09:05:28;64401.56;;;11.30;100.00
41636;BME280;27623;51.966;4.602;2024-01-30T09:07:53;64410.34;;;11.17;100.00
41636;BME280;27623;51.966;4.602;2024-01-30T09:10:19;64357.16;;;11.08;100.00
41636;BME280;27623;51.966;4.602;2024-01-30T09:12:44;64356.63;;;11.07;100.00
41636;BME280;27623;51.966;4.602;2024-01-30T09:15:10;64444.00;;;11.24;100.00
41636;BME280;27623;51.966;4.602;2024-01-30T09:17:35;64343.84;;;11.14;100.00
41636;BME280;27623;51.966;4.602;2024-01-30T09:20:00;64345.13;;;11.11;100.00
41636;BME280;27623;51.966;4.602;2024-01-30T09:22:26;64357.31;;;11.17;100.00
41636;BME280;27623;51.966;4.602;2024-01-30T09:24:51;64399.03;;;11.16;100.00
41636;BME280;27623;51.966;4.602;2024-01-30T09:27:17;64405.41;;;11.19;100.00
41636;BME280;27623;51.966;4.602;2024-01-30T09:29:42;64442.75;;;11.21;100.00
41636;BME280;27623;51.966;4.602;2024-01-30T09:32:07;64395.03;;;11.17;100.00
41636;BME280;27623;51.966;4.602;2024-01-30T09:34:36;64370.03;;;11.24;100.00
41636;BME280;27623;51.966;4.602;2024-01-30T09:37:02;64360.78;;;11.16;100.00
41636;BME280;27623;51.966;4.602;2024-01-30T09:39:27;64460.81;;;11.09;100.00
41636;BME280;27623;51.966;4.602;2024-01-30T09:44:51;64434.56;;;11.20;100.00
41636;BME280;27623;51.966;4.602;2024-01-30T09:47:17;64431.09;;;11.08;100.00
41636;BME280;27623;51.966;4.602;2024-01-30T09:49:43;64365.19;;;11.06;100.00
41636;BME280;27623;51.966;4.602;2024-01-30T09:52:11;64354.06;;;11.07;100.00
41636;BME280;27623;51.966;4.602;2024-01-30T09:54:38;64394.66;;;11.19;100.00
41636;BME280;27623;51.966;4.602;2024-01-30T09:57:04;64412.50;;;11.26;100.00
41636;BME280;27623;51.966;4.602;2024-01-30T09:59:30;64390.66;;;11.20;100.00
41636;BME280;27623;51.966;4.602;2024-01-30T10:01:56;64438.38;;;11.17;100.00
41636;BME280;27623;51.966;4.602;2024-01-30T10:04:22;64342.41;;;11.08;100.00
41636;BME280;27623;51.966;4.602;2024-01-30T10:06:48;64427.28;;;11.18;100.00
41636;BME280;27623;51.966;4.602;2024-01-30T10:09:13;64376.28;;;11.11;100.00
41636;BME280;27623;51.966;4.602;2024-01-30T10:11:39;64364.44;;;11.17;100.00
41636;BME280;27623;51.966;4.602;2024-01-30T10:14:04;64405.97;;;11.13;100.00
41636;BME280;27623;51.966;4.602;2024-01-30T10:16:30;64354.41;;;11.12;100.00
41636;BME280;27623;51.966;4.602;2024-01-30T10:18:55;64353.16;;;11.01;100.00
41636;BME280;27623;51.966;4.602;2024-01-30T10:21:21;64405.59;;;11.08;100.00
41636;BME280;27623;51.966;4.602;2024-01-30T10:23:51;64436.19;;;11.22;100.00
41636;BME280;27623;51.966;4.602;2024-01-30T10:26:16;64391.22;;;11.13;100.00
41636;BME280;27623;51.966;4.602;2024-01-30T10:28:45;64397.09;;;10.95;100.00
41636;BME280;27623;51.966;4.602;2024-01-30T10:31:17;64390.00;;;10.81;100.00
41636;BME280;27623;51.966;4.602;2024-01-30T10:33:44;64363.44;;;10.73;100.00
41636;BME280;27623;51.966;4.602;2024-01-30T10:36:13;64331.75;;;10.72;100.00
41636;BME280;27623;51.966;4.602;2024-01-30T10:38:42;64330.88;;;10.59;100.00
41636;BME280;27623;51.966;4.602;2024-01-30T10:41:08;64332.88;;;10.59;100.00
41636;BME280;27623;51.966;4.602;2024-01-30T10:43:41;64289.56;;;10.59;100.00
41636;BME280;27623;51.966;4.602;2024-01-30T10:46:11;64377.09;;;10.64;100.00
41636;BME280;27623;51.966;4.602;2024-01-30T10:48:42;64390.03;;;10.53;100.00
41636;BME280;27623;51.966;4.602;2024-01-30T10:51:10;64340.13;;;10.68;100.00
41636;BME280;27623;51.966;4.602;2024-01-30T10:53:36;64332.34;;;10.51;100.00
41636;BME280;27623;51.966;4.602;2024-01-30T10:56:03;64321.44;;;10.41;100.00
41636;BME280;27623;51.966;4.602;2024-01-30T10:58:31;64296.91;;;10.25;100.00
41636;BME280;27623;51.966;4.602;2024-01-30T11:00:57;64306.56;;;10.32;100.00
41636;BME280;27623;51.966;4.602;2024-01-30T11:03:24;64321.47;;;10.34;100.00
41636;BME280;27623;51.966;4.602;2024-01-30T11:05:50;64290.53;;;10.29;100.00
41636;BME280;27623;51.966;4.602;2024-01-30T11:08:23;64291.09;;;10.37;100.00
41636;BME280;27623;51.966;4.602;2024-01-30T11:10:49;64307.81;;;10.28;100.00
41636;BME280;27623;51.966;4.602;2024-01-30T11:13:15;64253.44;;;10.30;100.00
41636;BME280;27623;51.966;4.602;2024-01-30T11:15:41;64253.09;;;10.11;100.00
41636;BME280;27623;51.966;4.602;2024-01-30T11:18:06;64312.38;;;9.99;100.00
41636;BME280;27623;51.966;4.602;2024-01-30T11:20:39;64285.84;;;9.91;100.00
41636;BME280;27623;51.966;4.602;2024-01-30T11:23:11;64292.19;;;10.09;100.00
41636;BME280;27623;51.966;4.602;2024-01-30T11:25:37;64293.09;;;10.15;100.00
41636;BME280;27623;51.966;4.602;2024-01-30T11:28:02;64254.59;;;9.81;100.00
41636;BME280;27623;51.966;4.602;2024-01-30T11:30:30;64210.25;;;9.80;100.00
41636;BME280;27623;51.966;4.602;2024-01-30T11:35:25;64244.22;;;9.86;100.00
41636;BME280;27623;51.966;4.602;2024-01-30T11:37:50;64198.59;;;9.81;100.00
41636;BME280;27623;51.966;4.602;2024-01-30T11:40:16;64224.59;;;9.96;100.00
41636;BME280;27623;51.966;4.602;2024-01-30T11:42:44;64218.44;;;9.67;100.00
41636;BME280;27623;51.966;4.602;2024-01-30T11:45:10;64283.69;;;9.61;100.00
41636;BME280;27623;51.966;4.602;2024-01-30T11:47:36;64223.53;;;9.74;100.00
41636;BME280;27623;51.966;4.602;2024-01-30T11:50:04;64236.25;;;9.74;100.00
41636;BME280;27623;51.966;4.602;2024-01-30T11:52:32;64208.06;;;9.78;100.00
41636;BME280;27623;51.966;4.602;2024-01-30T11:55:02;64258.78;;;9.90;100.00
41636;BME280;27623;51.966;4.602;2024-01-30T11:57:28;64238.41;;;9.83;100.00
41636;BME280;27623;51.966;4.602;2024-01-30T11:59:53;64214.22;;;9.86;100.00
41636;BME280;27623;51.966;4.602;2024-01-30T12:02:18;64265.50;;;9.84;100.00
41636;BME280;27623;51.966;4.602;2024-01-30T12:04:44;64225.91;;;9.71;100.00
41636;BME280;27623;51.966;4.602;2024-01-30T12:07:10;64226.63;;;9.74;100.00
41636;BME280;27623;51.966;4.602;2024-01-30T12:09:36;64267.88;;;9.75;100.00
41636;BME280;27623;51.966;4.602;2024-01-30T12:12:01;64234.63;;;9.72;100.00
41636;BME280;27623;51.966;4.602;2024-01-30T12:14:27;64237.53;;;9.63;100.00
41636;BME280;27623;51.966;4.602;2024-01-30T12:16:52;64253.88;;;9.78;100.00
41636;BME280;27623;51.966;4.602;2024-01-30T12:19:24;64276.78;;;9.85;100.00
41636;BME280;27623;51.966;4.602;2024-01-30T12:21:57;64275.31;;;9.86;100.00
41636;BME280;27623;51.966;4.602;2024-01-30T12:24:26;64242.81;;;9.73;100.00
41636;BME280;27623;51.966;4.602;2024-01-30T12:26:52;64267.88;;;9.60;100.00
41636;BME280;27623;51.966;4.602;2024-01-30T12:29:21;64190.81;;;9.72;100.00
41636;BME280;27623;51.966;4.602;2024-01-30T12:31:47;64254.28;;;9.55;100.00
41636;BME280;27623;51.966;4.602;2024-01-30T12:34:15;64203.41;;;9.55;100.00
41636;BME280;27623;51.966;4.602;2024-01-30T12:36:44;64240.97;;;9.69;100.00
41636;BME280;27623;51.966;4.602;2024-01-30T12:39:13;64221.88;;;9.79;100.00
41636;BME280;27623;51.966;4.602;2024-01-30T12:41:40;64214.31;;;9.37;100.00
41636;BME280;27623;51.966;4.602;2024-01-30T12:44:05;64181.78;;;9.44;100.00
41636;BME280;27623;51.966;4.602;2024-01-30T12:46:34;64226.84;;;9.55;100.00
41636;BME280;27623;51.966;4.602;2024-01-30T12:49:00;64236.28;;;9.52;100.00
41636;BME280;27623;51.966;4.602;2024-01-30T12:51:27;64118.97;;;9.33;100.00
41636;BME280;27623;51.966;4.602;2024-01-30T12:53:53;64175.09;;;9.21;100.00
41636;BME280;27623;51.966;4.602;2024-01-30T12:56:18;64226.13;;;9.31;100.00